Time;durP1;ratioP1;P1;durP2;ratioP2;P2;SDS_P1;SDS_P2;PMS_P1;PMS_P2;Temp;Humidity;BMP_temperature;BMP_pressure;BME280_temperature;BME280_humidity;BME280_pressure;Samples;Min_cycle;Max_cycle;Signal;HPM_P1;HPM_P2
2020/12/09 00:02:25;;;;;;;14.40;2.70;;;13.90;99.90;;;;;;4821646;29;20579;-78
2020/12/09 00:04:51;;;;;;;16.45;3.72;;;13.90;99.90;;;;;;4821624;29;20030;-80
2020/12/09 00:07:17;;;;;;;16.30;3.05;;;13.90;99.90;;;;;;4821735;29;20389;-79
2020/12/09 00:09:43;;;;;;;8.43;1.65;;;13.90;99.90;;;;;;4801419;29;20117;-77
2020/12/09 00:12:09;;;;;;;13.25;2.50;;;13.90;99.90;;;;;;4814668;29;20042;-77
2020/12/09 00:14:35;;;;;;;15.93;2.67;;;13.80;99.90;;;;;;4823803;29;20045;-78
2020/12/09 00:17:02;;;;;;;17.52;2.90;;;13.80;99.90;;;;;;4819663;29;20405;-78
2020/12/09 00:19:28;;;;;;;11.65;2.45;;;13.80;99.90;;;;;;4840313;29;20030;-78
2020/12/09 00:21:54;;;;;;;4.95;2.58;;;13.80;99.90;;;;;;4837518;29;20030;-78
2020/12/09 00:24:20;;;;;;;13.93;2.35;;;13.80;99.90;;;;;;4821284;29;20054;-78
2020/12/09 00:26:47;;;;;;;12.18;2.85;;;13.80;99.90;;;;;;4821405;29;20030;-78
2020/12/09 00:29:13;;;;;;;15.63;3.22;;;13.80;99.90;;;;;;4821225;29;20437;-78
2020/12/09 00:31:39;;;;;;;7.03;1.98;;;13.80;99.90;;;;;;4821452;29;20099;-79
2020/12/09 00:34:06;;;;;;;9.23;2.22;;;13.90;99.90;;;;;;4819913;29;20520;-78
2020/12/09 00:36:32;;;;;;;8.80;2.00;;;13.80;99.90;;;;;;4821295;29;20022;-78
2020/12/09 00:38:58;;;;;;;10.15;1.98;;;13.80;99.90;;;;;;4821266;29;20030;-79
2020/12/09 00:41:27;;;;;;;12.55;4.05;;;13.80;99.90;;;;;;4805036;29;20393;-79
2020/12/09 00:43:55;;;;;;;12.98;1.98;;;13.80;99.90;;;;;;4821275;29;20070;-79
2020/12/09 00:46:26;;;;;;;8.30;1.70;;;13.80;99.90;;;;;;4821176;29;20050;-78
2020/12/09 00:48:57;;;;;;;10.73;2.55;;;13.80;99.90;;;;;;4825883;29;20042;-78
2020/12/09 00:51:26;;;;;;;13.82;2.55;;;13.80;99.90;;;;;;4789586;29;20084;-79
2020/12/09 00:53:54;;;;;;;12.60;2.35;;;13.80;99.90;;;;;;4782116;29;20118;-78
2020/12/09 00:56:25;;;;;;;14.63;2.72;;;13.80;99.90;;;;;;4786778;29;20054;-78
2020/12/09 00:58:51;;;;;;;8.52;2.13;;;13.90;99.90;;;;;;4786486;29;20448;-78
2020/12/09 01:01:19;;;;;;;12.18;2.35;;;13.90;99.90;;;;;;4785970;29;20026;-78
2020/12/09 01:03:52;;;;;;;11.77;3.40;;;13.90;99.90;;;;;;4791423;29;20027;-78
2020/12/09 01:06:18;;;;;;;14.15;1.58;;;13.90;99.90;;;;;;4804794;29;20042;-78
2020/12/09 01:08:44;;;;;;;8.70;2.28;;;13.90;99.90;;;;;;4795582;29;20509;-78
2020/12/09 01:11:12;;;;;;;10.85;2.38;;;13.90;99.90;;;;;;4802643;29;20094;-78
2020/12/09 01:13:43;;;;;;;9.45;2.47;;;13.90;99.90;;;;;;4787219;29;20066;-79
2020/12/09 01:16:17;;;;;;;7.75;2.25;;;13.90;99.90;;;;;;4820809;29;20030;-78
2020/12/09 01:18:43;;;;;;;9.03;1.93;;;13.80;99.90;;;;;;4820961;29;20042;-79
2020/12/09 01:21:09;;;;;;;8.48;2.05;;;13.80;99.90;;;;;;4820742;29;20282;-77
2020/12/09 01:23:35;;;;;;;17.77;2.28;;;13.80;99.90;;;;;;4820801;29;20149;-78
2020/12/09 01:26:01;;;;;;;9.90;1.98;;;13.80;99.90;;;;;;4804340;29;20058;-78
2020/12/09 01:28:27;;;;;;;11.68;1.85;;;13.80;99.90;;;;;;4786392;29;20425;-80
2020/12/09 01:30:54;;;;;;;16.85;2.38;;;13.80;99.90;;;;;;4802533;29;20042;-79
2020/12/09 01:33:20;;;;;;;10.43;1.52;;;13.80;99.90;;;;;;4802355;29;20046;-79
2020/12/09 01:35:46;;;;;;;9.25;1.80;;;13.80;99.90;;;;;;4814335;29;20038;-78
2020/12/09 01:38:12;;;;;;;6.90;2.00;;;13.80;99.90;;;;;;4820634;29;20091;-79
2020/12/09 01:40:38;;;;;;;9.13;1.88;;;13.80;99.90;;;;;;4820625;29;20512;-78
2020/12/09 01:43:04;;;;;;;8.50;1.95;;;13.80;99.90;;;;;;4804210;29;20038;-78
2020/12/09 01:45:33;;;;;;;7.80;2.35;;;13.80;99.90;;;;;;4812819;29;20038;-78
2020/12/09 01:47:59;;;;;;;8.50;1.83;;;13.80;99.90;;;;;;4786481;29;20191;-79
2020/12/09 01:50:25;;;;;;;10.45;1.85;;;13.80;99.90;;;;;;4785925;29;20035;-78
2020/12/09 01:52:52;;;;;;;6.53;1.35;;;13.80;99.90;;;;;;4785883;29;20054;-79
2020/12/09 01:55:18;;;;;;;9.02;2.42;;;13.80;99.90;;;;;;4805188;29;20022;-79
2020/12/09 01:57:44;;;;;;;10.13;1.90;;;13.80;99.90;;;;;;4820443;29;20549;-79
2020/12/09 02:00:10;;;;;;;9.07;2.60;;;13.80;99.90;;;;;;4788679;29;20393;-78
2020/12/09 02:02:42;;;;;;;6.88;2.15;;;13.80;99.90;;;;;;4803847;29;20038;-78
2020/12/09 02:05:12;;;;;;;13.80;1.98;;;13.80;99.90;;;;;;4804153;29;20121;-79
2020/12/09 02:07:39;;;;;;;9.57;2.10;;;13.80;99.90;;;;;;4817795;29;20041;-78
2020/12/09 02:10:06;;;;;;;11.63;1.83;;;13.80;99.90;;;;;;4804062;29;20121;-79
2020/12/09 02:12:37;;;;;;;9.07;1.88;;;13.80;99.90;;;;;;4823074;29;20497;-79
2020/12/09 02:15:05;;;;;;;9.68;2.28;;;13.90;99.90;;;;;;4807539;29;20099;-78
2020/12/09 02:17:31;;;;;;;6.15;1.45;;;13.80;99.90;;;;;;4792478;29;20031;-79
2020/12/09 02:19:57;;;;;;;11.02;1.77;;;13.80;99.90;;;;;;4789852;29;20039;-79
2020/12/09 02:22:23;;;;;;;5.78;1.80;;;13.80;99.90;;;;;;4788980;29;20041;-78
2020/12/09 02:24:49;;;;;;;8.27;2.33;;;13.80;99.90;;;;;;4805597;29;20051;-79
2020/12/09 02:27:15;;;;;;;5.40;2.05;;;13.80;99.90;;;;;;4799569;29;20062;-78
2020/12/09 02:29:42;;;;;;;9.20;2.42;;;13.80;99.90;;;;;;4823613;29;20489;-79
2020/12/09 02:32:08;;;;;;;13.13;1.83;;;13.80;99.90;;;;;;4807516;29;20569;-79
2020/12/09 02:34:34;;;;;;;18.17;3.67;;;13.70;99.90;;;;;;4822105;29;20039;-77
2020/12/09 02:37:00;;;;;;;7.40;1.80;;;13.70;99.90;;;;;;4823353;29;20103;-77
2020/12/09 02:39:37;;;;;;;6.63;2.08;;;13.70;99.90;;;;;;4823494;29;20034;-79
2020/12/09 02:42:04;;;;;;;6.57;1.48;;;13.80;99.90;;;;;;4823278;29;20413;-79
2020/12/09 02:44:30;;;;;;;4.75;2.03;;;13.80;99.90;;;;;;4806832;29;20035;-78
2020/12/09 02:46:57;;;;;;;12.82;2.03;;;13.70;99.90;;;;;;4777531;29;20041;-78
2020/12/09 02:49:23;;;;;;;7.15;1.88;;;13.70;99.90;;;;;;4807311;29;20034;-79
2020/12/09 02:51:51;;;;;;;11.52;2.47;;;13.80;99.90;;;;;;4823234;29;20053;-78
2020/12/09 02:54:17;;;;;;;8.90;2.90;;;13.80;99.90;;;;;;4823027;29;20038;-78
2020/12/09 02:56:43;;;;;;;19.08;3.30;;;13.80;99.90;;;;;;4809045;29;20091;-79
2020/12/09 02:59:09;;;;;;;18.90;4.47;;;13.90;99.90;;;;;;4804979;29;20039;-79
2020/12/09 03:01:35;;;;;;;14.70;3.00;;;13.90;99.90;;;;;;4805052;29;20505;-78
2020/12/09 03:04:02;;;;;;;11.63;2.03;;;13.90;99.90;;;;;;4805001;29;20035;-79
2020/12/09 03:06:28;;;;;;;8.30;1.55;;;14.00;99.90;;;;;;4814243;29;20030;-78
2020/12/09 03:08:55;;;;;;;21.50;2.42;;;14.00;99.90;;;;;;4806869;29;20402;-79
2020/12/09 03:11:21;;;;;;;6.03;1.77;;;14.10;99.90;;;;;;4822978;29;20453;-79
2020/12/09 03:13:47;;;;;;;12.70;2.80;;;14.00;99.90;;;;;;4822724;29;20090;-79
2020/12/09 03:16:13;;;;;;;7.10;2.13;;;14.00;99.90;;;;;;4817463;29;20034;-79
2020/12/09 03:18:39;;;;;;;10.80;2.67;;;14.10;99.90;;;;;;4804564;29;20031;-78
2020/12/09 03:21:06;;;;;;;14.60;2.92;;;14.10;99.90;;;;;;4804929;29;20035;-78
2020/12/09 03:23:35;;;;;;;13.68;2.35;;;14.10;99.90;;;;;;4803756;29;20057;-77
2020/12/09 03:26:02;;;;;;;12.27;1.90;;;14.10;99.90;;;;;;4805455;29;20039;-79
2020/12/09 03:28:29;;;;;;;10.00;2.85;;;14.10;99.90;;;;;;4822732;29;20034;-78
2020/12/09 03:30:55;;;;;;;9.00;1.95;;;14.10;99.90;;;;;;4823438;29;20030;-79
2020/12/09 03:33:21;;;;;;;10.43;2.67;;;14.10;99.90;;;;;;4805706;29;20042;-79
2020/12/09 03:35:47;;;;;;;15.57;3.17;;;14.10;99.90;;;;;;4822454;29;20026;-79
2020/12/09 03:38:13;;;;;;;8.98;2.13;;;14.10;99.90;;;;;;4807761;29;20058;-79
2020/12/09 03:40:39;;;;;;;12.20;2.22;;;14.10;99.90;;;;;;4804481;29;20101;-79
2020/12/09 03:43:05;;;;;;;11.38;2.28;;;14.10;99.90;;;;;;4788450;29;20031;-78
2020/12/09 03:45:31;;;;;;;12.30;1.90;;;14.10;99.90;;;;;;4804165;29;20516;-78
2020/12/09 03:47:58;;;;;;;9.75;2.22;;;14.10;99.90;;;;;;4813785;29;20084;-79
2020/12/09 03:50:24;;;;;;;14.20;2.72;;;14.10;99.90;;;;;;4806091;29;20117;-79
2020/12/09 03:52:50;;;;;;;13.68;2.88;;;14.10;99.90;;;;;;4805988;29;20038;-78
2020/12/09 03:55:16;;;;;;;12.10;2.30;;;14.20;99.90;;;;;;4805765;29;20034;-79
2020/12/09 03:57:42;;;;;;;10.65;2.08;;;14.10;99.90;;;;;;4800426;29;20031;-79
2020/12/09 04:00:08;;;;;;;15.05;2.55;;;14.10;99.90;;;;;;4804145;29;20509;-79
2020/12/09 04:02:34;;;;;;;13.20;2.40;;;14.10;99.90;;;;;;4803832;29;20031;-79
2020/12/09 04:05:01;;;;;;;6.30;1.80;;;14.20;99.90;;;;;;4804055;29;20041;-79
2020/12/09 04:07:27;;;;;;;16.80;3.08;;;14.10;99.90;;;;;;4804638;29;20023;-79
2020/12/09 04:09:53;;;;;;;10.90;2.10;;;14.10;99.90;;;;;;4822010;29;20027;-80
2020/12/09 04:12:23;;;;;;;10.73;2.40;;;14.10;99.90;;;;;;4821883;29;20043;-79
2020/12/09 04:14:50;;;;;;;12.23;2.00;;;14.10;99.90;;;;;;4805842;29;20046;-80
2020/12/09 04:17:16;;;;;;;10.95;2.40;;;14.00;99.90;;;;;;4821928;29;20030;-78
2020/12/09 04:19:42;;;;;;;16.50;3.30;;;14.10;99.90;;;;;;4820144;29;20110;-79
2020/12/09 04:22:09;;;;;;;13.65;2.95;;;14.10;99.90;;;;;;4813192;29;20070;-79
2020/12/09 04:24:35;;;;;;;15.30;3.45;;;14.00;99.90;;;;;;4803434;29;20473;-79
2020/12/09 04:27:01;;;;;;;10.75;2.97;;;14.00;99.90;;;;;;4803431;29;20039;-80
2020/12/09 04:29:27;;;;;;;14.18;3.85;;;14.00;99.90;;;;;;4813042;29;20083;-78
2020/12/09 04:31:53;;;;;;;11.50;3.03;;;14.00;99.90;;;;;;4821861;29;20073;-79
2020/12/09 04:34:19;;;;;;;14.40;3.42;;;14.00;99.90;;;;;;4821448;29;20142;-79
2020/12/09 04:36:47;;;;;;;18.02;3.15;;;14.00;99.90;;;;;;4821625;29;20030;-79
2020/12/09 04:39:13;;;;;;;15.35;2.95;;;14.10;99.90;;;;;;4815977;29;20508;-78
2020/12/09 04:41:40;;;;;;;11.40;2.47;;;14.20;99.90;;;;;;4803222;29;20482;-78
2020/12/09 04:44:06;;;;;;;16.27;4.03;;;14.20;99.90;;;;;;4803328;29;20474;-78
2020/12/09 04:46:37;;;;;;;14.95;3.30;;;14.20;99.90;;;;;;4803163;29;20034;-80
2020/12/09 04:49:12;;;;;;;20.60;3.88;;;14.30;99.90;;;;;;4804466;29;20110;-79
2020/12/09 04:52:13;;;;;;;13.38;3.25;;;14.30;99.90;;;;;;4821225;29;20106;-79
2020/12/09 04:54:44;;;;;;;18.58;3.03;;;14.30;99.90;;;;;;4805063;29;20050;-80
2020/12/09 04:57:13;;;;;;;15.63;3.53;;;14.30;99.90;;;;;;4805236;29;20030;-79
2020/12/09 04:59:41;;;;;;;12.75;3.67;;;14.30;99.90;;;;;;4819943;29;20405;-78
2020/12/09 05:02:10;;;;;;;13.32;3.45;;;14.40;99.90;;;;;;4821432;29;20022;-79
2020/12/09 05:04:37;;;;;;;13.85;3.15;;;14.40;99.90;;;;;;4821439;29;20560;-78
2020/12/09 05:07:09;;;;;;;16.50;4.30;;;14.40;99.90;;;;;;4821029;29;20037;-78
2020/12/09 05:09:45;;;;;;;12.65;3.65;;;14.30;99.90;;;;;;4821012;29;20039;-78
2020/12/09 05:12:16;;;;;;;19.88;2.67;;;14.30;99.90;;;;;;4802633;29;20127;-80
2020/12/09 05:14:49;;;;;;;17.95;3.25;;;14.30;99.90;;;;;;4802664;29;20054;-79
2020/12/09 05:17:18;;;;;;;18.05;3.10;;;14.30;99.90;;;;;;4802598;29;20042;-78
2020/12/09 05:19:47;;;;;;;17.75;3.72;;;14.30;99.90;;;;;;4802475;29;20026;-79
2020/12/09 05:22:20;;;;;;;14.43;3.28;;;14.30;99.90;;;;;;4806114;29;20113;-78
2020/12/09 05:24:46;;;;;;;17.70;3.17;;;14.30;99.90;;;;;;4786811;29;20172;-78
2020/12/09 05:27:14;;;;;;;19.83;3.55;;;14.30;99.90;;;;;;4802419;29;20041;-79
2020/12/09 05:29:48;;;;;;;26.02;4.68;;;14.30;99.90;;;;;;4802645;29;20130;-79
2020/12/09 05:32:14;;;;;;;17.95;2.42;;;14.30;99.90;;;;;;4788325;29;20043;-78
2020/12/09 05:34:40;;;;;;;22.75;4.63;;;14.30;99.90;;;;;;4804514;29;20138;-78
2020/12/09 05:37:08;;;;;;;15.45;3.78;;;14.30;99.90;;;;;;4820509;29;20030;-78
2020/12/09 05:39:47;;;;;;;14.93;2.97;;;14.30;99.90;;;;;;4818304;29;20034;-78
2020/12/09 05:42:16;;;;;;;21.98;2.95;;;14.30;99.90;;;;;;4820781;29;20033;-79
2020/12/09 05:44:42;;;;;;;17.98;3.45;;;14.30;99.90;;;;;;4820783;29;20030;-78
2020/12/09 05:47:09;;;;;;;14.05;2.70;;;14.30;99.90;;;;;;4820074;29;20031;-78
2020/12/09 05:49:37;;;;;;;14.23;2.60;;;14.30;99.90;;;;;;4813633;29;20034;-79
2020/12/09 05:52:15;;;;;;;12.55;3.05;;;14.40;99.90;;;;;;4802392;29;20425;-79
2020/12/09 05:54:46;;;;;;;19.75;4.53;;;14.40;99.90;;;;;;4802002;29;20046;-80
2020/12/09 05:57:17;;;;;;;15.60;2.75;;;14.40;99.90;;;;;;4786256;29;20038;-79
2020/12/09 05:59:46;;;;;;;18.55;3.13;;;14.40;99.90;;;;;;4803119;29;20073;-78
2020/12/09 06:02:22;;;;;;;12.20;2.97;;;14.40;99.90;;;;;;4802390;29;20030;-79
2020/12/09 06:04:59;;;;;;;14.40;2.80;;;14.40;99.90;;;;;;4802235;29;20039;-79
2020/12/09 06:07:30;;;;;;;13.90;2.90;;;14.40;99.90;;;;;;4786056;29;20038;-79
2020/12/09 06:10:17;;;;;;;9.88;2.50;;;14.40;99.90;;;;;;4806113;29;20117;-79
2020/12/09 06:12:57;;;;;;;14.00;3.38;;;14.40;99.90;;;;;;4817930;29;20406;-79
2020/12/09 06:15:33;;;;;;;17.00;3.17;;;14.50;99.90;;;;;;4802072;29;20049;-78
2020/12/09 06:18:10;;;;;;;8.73;2.42;;;14.50;99.90;;;;;;4802231;29;20069;-78
2020/12/09 06:20:41;;;;;;;11.38;2.85;;;14.50;99.90;;;;;;4808280;29;20083;-78
2020/12/09 06:23:13;;;;;;;14.75;2.72;;;14.50;99.90;;;;;;4820173;29;20148;-79
2020/12/09 06:25:39;;;;;;;14.15;2.88;;;14.60;99.90;;;;;;4815122;29;20448;-79
2020/12/09 06:28:12;;;;;;;16.70;2.45;;;14.60;99.90;;;;;;4808350;29;20060;-79
2020/12/09 06:30:38;;;;;;;10.30;3.50;;;14.60;99.90;;;;;;4819991;29;20035;-79
2020/12/09 06:33:05;;;;;;;16.42;4.18;;;14.60;99.90;;;;;;4820066;29;20446;-78
2020/12/09 06:35:32;;;;;;;12.95;3.40;;;14.60;99.90;;;;;;4813398;29;20107;-79
2020/12/09 06:38:10;;;;;;;16.15;2.85;;;14.60;99.90;;;;;;4785864;29;20042;-78
2020/12/09 06:40:38;;;;;;;13.52;3.38;;;14.70;99.90;;;;;;4801725;29;20035;-79
2020/12/09 06:43:11;;;;;;;14.50;3.97;;;14.70;99.90;;;;;;4785436;29;20498;-79
2020/12/09 06:45:42;;;;;;;14.13;3.15;;;14.70;99.90;;;;;;4789824;29;20037;-80
2020/12/09 06:48:12;;;;;;;23.48;3.40;;;14.80;99.90;;;;;;4819842;29;20489;-78
2020/12/09 06:50:39;;;;;;;23.48;4.30;;;14.80;99.90;;;;;;4819950;29;20031;-80
2020/12/09 06:53:15;;;;;;;13.88;3.58;;;14.70;99.90;;;;;;4819865;29;20067;-79
2020/12/09 06:55:42;;;;;;;18.60;4.95;;;14.80;99.90;;;;;;4801343;29;20046;-79
2020/12/09 06:58:25;;;;;;;14.00;4.63;;;14.80;99.90;;;;;;4803739;29;20081;-78
2020/12/09 07:00:58;;;;;;;17.40;3.35;;;14.80;99.90;;;;;;4805094;29;20055;-79
2020/12/09 07:03:26;;;;;;;17.42;2.88;;;14.80;99.90;;;;;;4805438;29;20387;-79
2020/12/09 07:05:53;;;;;;;18.75;3.83;;;14.80;99.90;;;;;;4789549;29;20031;-78
2020/12/09 07:08:19;;;;;;;16.17;3.83;;;14.80;99.90;;;;;;4804798;29;20531;-79
2020/12/09 07:10:45;;;;;;;13.60;3.88;;;14.80;99.90;;;;;;4788599;29;20434;-79
2020/12/09 07:13:14;;;;;;;26.35;3.28;;;14.80;99.90;;;;;;4804739;29;20045;-79
2020/12/09 07:15:45;;;;;;;20.42;2.92;;;14.80;99.90;;;;;;4804759;29;20101;-79
2020/12/09 07:18:11;;;;;;;18.08;3.42;;;14.80;99.90;;;;;;4819244;29;20038;-78
2020/12/09 07:20:38;;;;;;;18.48;5.28;;;14.80;99.90;;;;;;4806183;29;20062;-78
2020/12/09 07:23:05;;;;;;;16.17;4.28;;;14.80;99.90;;;;;;4806153;29;20085;-78
2020/12/09 07:25:35;;;;;;;9.63;2.95;;;14.80;99.90;;;;;;4822702;29;20050;-78
2020/12/09 07:28:02;;;;;;;24.02;4.72;;;14.80;99.90;;;;;;4811467;29;20063;-80
2020/12/09 07:30:29;;;;;;;16.15;4.80;;;14.80;99.90;;;;;;4804519;29;20038;-79
2020/12/09 07:32:55;;;;;;;17.88;3.92;;;14.90;99.90;;;;;;4804475;29;20548;-79
2020/12/09 07:35:22;;;;;;;18.50;4.15;;;14.90;99.90;;;;;;4804465;29;20045;-78
2020/12/09 07:37:53;;;;;;;16.40;4.68;;;14.90;99.90;;;;;;4794978;29;20019;-78
2020/12/09 07:40:29;;;;;;;17.90;3.70;;;14.90;99.90;;;;;;4806381;29;20035;-78
2020/12/09 07:43:02;;;;;;;40.22;7.55;;;14.90;99.90;;;;;;4822420;29;20038;-77
2020/12/09 07:45:31;;;;;;;10.70;2.17;;;14.90;99.90;;;;;;4806293;29;20045;-79
2020/12/09 07:48:05;;;;;;;20.98;4.65;;;14.80;99.90;;;;;;4816710;29;20051;-78
2020/12/09 07:50:32;;;;;;;15.77;3.53;;;14.90;99.90;;;;;;4804361;29;20035;-78
2020/12/09 07:52:59;;;;;;;15.27;2.95;;;14.90;99.90;;;;;;4804019;29;20047;-79
2020/12/09 07:55:27;;;;;;;11.90;2.35;;;14.90;99.90;;;;;;4787720;29;20390;-78
2020/12/09 07:58:05;;;;;;;14.93;3.10;;;14.90;99.90;;;;;;4789485;29;20035;-78
2020/12/09 08:00:37;;;;;;;11.43;3.38;;;15.00;99.90;;;;;;4804433;29;20027;-78
2020/12/09 08:03:03;;;;;;;24.63;2.03;;;15.00;99.90;;;;;;4822597;29;20069;-78
2020/12/09 08:05:37;;;;;;;11.82;2.85;;;14.90;99.90;;;;;;4822459;29;20541;-79
2020/12/09 08:08:12;;;;;;;18.83;4.38;;;14.90;99.90;;;;;;4822883;29;20027;-81
2020/12/09 08:10:39;;;;;;;22.73;4.93;;;14.90;99.90;;;;;;4821494;29;20042;-82
2020/12/09 08:13:29;;;;;;;17.05;3.15;;;14.90;99.90;;;;;;4822027;29;20030;-84
2020/12/09 08:16:07;;;;;;;25.75;4.18;;;15.00;99.90;;;;;;4814161;29;20062;-77
2020/12/09 08:18:34;;;;;;;12.23;2.55;;;15.10;99.90;;;;;;4822589;29;20030;-78
2020/12/09 08:21:00;;;;;;;11.07;2.25;;;15.10;99.90;;;;;;4805053;29;20494;-85
2020/12/09 08:23:46;;;;;;;14.82;2.60;;;15.20;99.90;;;;;;4803873;29;20047;-77
2020/12/09 08:26:26;;;;;;;11.80;1.98;;;15.10;99.90;;;;;;4803744;29;20117;-82
2020/12/09 08:28:52;;;;;;;9.05;1.48;;;15.20;99.90;;;;;;4804121;29;20027;-77
2020/12/09 08:31:19;;;;;;;10.77;1.50;;;15.20;99.90;;;;;;4821012;29;20437;-77
2020/12/09 08:33:45;;;;;;;12.93;2.53;;;15.10;99.90;;;;;;4821918;29;20118;-77
2020/12/09 08:36:16;;;;;;;6.25;1.88;;;15.00;99.90;;;;;;4821832;29;20034;-79
2020/12/09 08:38:43;;;;;;;7.13;1.50;;;14.90;99.90;;;;;;4822323;29;20520;-80
2020/12/09 08:41:11;;;;;;;13.77;2.00;;;14.80;99.90;;;;;;4791767;29;20436;-76
2020/12/09 08:43:39;;;;;;;8.35;2.72;;;14.80;99.90;;;;;;4803845;29;20030;-83
2020/12/09 08:46:08;;;;;;;11.60;2.05;;;14.70;99.90;;;;;;4803591;29;20041;-78
2020/12/09 08:48:38;;;;;;;24.52;4.13;;;14.70;99.90;;;;;;4803791;29;20130;-77
2020/12/09 08:51:06;;;;;;;13.38;3.08;;;14.70;99.90;;;;;;4814117;29;20371;-77
2020/12/09 08:53:32;;;;;;;10.77;2.55;;;14.70;99.90;;;;;;4808239;29;20380;-84
2020/12/09 08:55:58;;;;;;;10.00;2.13;;;14.60;99.90;;;;;;4821241;29;20121;-84
2020/12/09 08:58:24;;;;;;;13.23;2.90;;;14.50;99.90;;;;;;4822260;29;20030;-80
2020/12/09 09:00:50;;;;;;;14.05;2.67;;;14.50;99.90;;;;;;4813678;29;20429;-85
2020/12/09 09:03:19;;;;;;;16.77;4.38;;;14.50;99.90;;;;;;4804730;29;20031;-81
2020/12/09 09:05:47;;;;;;;15.95;2.70;;;14.60;99.90;;;;;;4805614;29;20086;-79
2020/12/09 09:08:14;;;;;;;11.60;2.75;;;14.60;99.90;;;;;;4821840;29;20490;-85
2020/12/09 09:10:42;;;;;;;14.13;3.40;;;14.70;99.90;;;;;;4821760;29;20557;-85
2020/12/09 09:13:10;;;;;;;18.40;3.33;;;14.80;99.90;;;;;;4813147;29;20539;-77
2020/12/09 09:15:39;;;;;;;23.73;4.38;;;15.00;99.90;;;;;;4805068;29;20367;-84
2020/12/09 09:18:06;;;;;;;14.70;3.50;;;15.10;99.90;;;;;;4821004;29;20031;-84
2020/12/09 09:20:33;;;;;;;12.25;3.17;;;15.10;99.90;;;;;;4811556;29;20034;-80
2020/12/09 09:23:01;;;;;;;22.02;4.30;;;15.10;99.90;;;;;;4821462;29;20079;-85
2020/12/09 09:25:28;;;;;;;14.88;2.72;;;15.10;99.90;;;;;;4817978;29;20038;-85
2020/12/09 09:27:54;;;;;;;22.58;3.78;;;15.10;99.90;;;;;;4809430;29;20037;-77
2020/12/09 09:30:21;;;;;;;12.77;3.72;;;15.20;99.90;;;;;;4819572;29;20026;-84
2020/12/09 09:32:48;;;;;;;14.25;2.17;;;15.30;99.90;;;;;;4818686;29;20038;-83
2020/12/09 09:35:15;;;;;;;5.07;1.95;;;15.60;99.90;;;;;;4820885;29;20095;-85
2020/12/09 09:37:41;;;;;;;13.85;4.00;;;15.70;99.90;;;;;;4821190;29;20031;-79
2020/12/09 09:40:08;;;;;;;13.75;2.28;;;15.80;99.90;;;;;;4820593;29;20030;-78
2020/12/09 09:42:34;;;;;;;12.38;2.15;;;15.90;99.90;;;;;;4817577;29;20447;-77
2020/12/09 09:45:02;;;;;;;11.90;3.67;;;15.80;99.90;;;;;;4803000;29;20035;-85
2020/12/09 09:47:28;;;;;;;15.40;2.50;;;15.80;99.90;;;;;;4819334;29;20034;-77
2020/12/09 09:49:55;;;;;;;11.63;2.95;;;15.70;99.90;;;;;;4788151;29;20083;-76
2020/12/09 09:52:21;;;;;;;11.27;3.33;;;15.80;99.90;;;;;;4803556;29;20087;-85
2020/12/09 09:54:47;;;;;;;13.15;2.15;;;16.00;99.90;;;;;;4819123;29;20046;-78
2020/12/09 09:57:13;;;;;;;6.45;2.08;;;16.10;99.90;;;;;;4803441;29;20043;-76
2020/12/09 09:59:39;;;;;;;11.23;2.40;;;16.10;99.90;;;;;;4790052;29;20485;-82
2020/12/09 10:02:05;;;;;;;10.15;1.50;;;16.00;99.90;;;;;;4818730;29;20581;-77
2020/12/09 10:04:31;;;;;;;8.35;2.20;;;16.00;99.90;;;;;;4803545;29;20396;-84
2020/12/09 10:06:58;;;;;;;8.10;2.10;;;16.00;99.90;;;;;;4820921;29;20041;-77
2020/12/09 10:09:24;;;;;;;11.85;2.78;;;16.00;99.90;;;;;;4800145;29;21282;-77
2020/12/09 10:11:50;;;;;;;6.30;1.75;;;16.00;99.90;;;;;;4820357;29;20026;-78
2020/12/09 10:14:16;;;;;;;12.68;2.85;;;16.10;99.90;;;;;;4803031;29;20046;-83
2020/12/09 10:16:46;;;;;;;11.90;2.42;;;16.20;99.90;;;;;;4804802;29;20039;-86
2020/12/09 10:19:13;;;;;;;19.48;3.17;;;16.20;99.90;;;;;;4822086;29;20042;-85
2020/12/09 10:21:39;;;;;;;10.82;1.83;;;16.30;99.90;;;;;;4820994;29;20053;-84
2020/12/09 10:24:07;;;;;;;17.23;2.70;;;16.30;99.90;;;;;;4820501;29;20063;-77
2020/12/09 10:26:35;;;;;;;8.35;2.50;;;16.20;99.90;;;;;;4820111;29;20026;-77
2020/12/09 10:29:08;;;;;;;16.98;3.83;;;16.20;99.90;;;;;;4819859;29;20110;-77
2020/12/09 10:31:46;;;;;;;16.17;2.25;;;16.20;99.90;;;;;;4819405;29;20034;-77
2020/12/09 10:34:15;;;;;;;11.43;2.75;;;16.10;99.90;;;;;;4823508;29;20046;-77
2020/12/09 10:36:48;;;;;;;16.30;2.55;;;16.00;99.90;;;;;;4822064;29;20030;-77
2020/12/09 10:39:16;;;;;;;9.13;2.63;;;16.10;99.90;;;;;;4822406;29;20066;-79
2020/12/09 10:41:42;;;;;;;18.83;2.53;;;16.00;99.90;;;;;;4822144;29;20402;-77
2020/12/09 10:44:09;;;;;;;13.20;1.92;;;16.00;99.90;;;;;;4806637;29;20065;-78
2020/12/09 10:46:38;;;;;;;12.98;1.90;;;16.00;99.90;;;;;;4823260;29;20034;-82
2020/12/09 10:49:05;;;;;;;17.65;2.45;;;15.90;99.90;;;;;;4822360;29;20034;-82
2020/12/09 10:51:32;;;;;;;14.15;3.58;;;15.90;99.90;;;;;;4806022;29;20053;-81
2020/12/09 10:53:59;;;;;;;7.95;2.05;;;15.90;99.90;;;;;;4805921;29;20042;-84
2020/12/09 10:56:27;;;;;;;27.10;4.75;;;15.80;99.90;;;;;;4819559;29;20114;-82
2020/12/09 10:58:54;;;;;;;12.10;2.58;;;15.80;99.90;;;;;;4804050;29;20027;-76
2020/12/09 11:01:21;;;;;;;19.73;3.05;;;15.70;99.90;;;;;;4818368;29;20113;-76
2020/12/09 11:03:47;;;;;;;21.65;2.97;;;15.70;99.90;;;;;;4823423;29;20558;-77
2020/12/09 11:06:14;;;;;;;11.60;2.47;;;15.70;99.90;;;;;;4828677;29;20038;-78
2020/12/09 11:08:42;;;;;;;8.77;1.50;;;15.70;99.90;;;;;;4823437;29;20148;-81
2020/12/09 11:11:08;;;;;;;5.35;2.08;;;15.50;99.90;;;;;;4807652;29;20062;-77
2020/12/09 11:13:35;;;;;;;5.65;1.52;;;15.10;99.90;;;;;;4806179;29;20054;-77
2020/12/09 11:16:02;;;;;;;7.15;1.63;;;15.10;99.90;;;;;;4805418;29;20040;-77
2020/12/09 11:18:28;;;;;;;10.48;1.45;;;14.80;99.90;;;;;;4803392;29;20047;-77
2020/12/09 11:20:54;;;;;;;8.32;1.67;;;14.40;99.90;;;;;;4811911;29;20043;-78
2020/12/09 11:23:20;;;;;;;7.85;1.92;;;14.10;99.90;;;;;;4821160;29;20108;-81
2020/12/09 11:25:46;;;;;;;8.63;1.73;;;13.90;99.90;;;;;;4820200;29;20034;-81
2020/12/09 11:28:13;;;;;;;7.95;1.40;;;13.90;99.90;;;;;;4816641;29;20038;-82
2020/12/09 11:30:39;;;;;;;3.05;1.38;;;13.80;99.90;;;;;;4821173;29;20022;-80
2020/12/09 11:33:05;;;;;;;5.60;1.20;;;13.80;99.90;;;;;;4822518;29;20038;-83
2020/12/09 11:35:31;;;;;;;4.60;1.23;;;13.90;99.90;;;;;;4823658;29;20117;-79
2020/12/09 11:37:57;;;;;;;2.13;0.80;;;14.00;99.90;;;;;;4805792;29;20038;-82
2020/12/09 11:40:25;;;;;;;3.83;1.60;;;14.20;99.90;;;;;;4825065;29;20030;-82
2020/12/09 11:42:52;;;;;;;3.58;1.17;;;14.20;99.90;;;;;;4824478;29;20060;-81
2020/12/09 11:45:19;;;;;;;5.15;1.50;;;14.40;99.90;;;;;;4830138;29;20389;-82
2020/12/09 11:47:45;;;;;;;9.68;1.73;;;14.40;99.90;;;;;;4822473;29;20066;-78
2020/12/09 11:50:11;;;;;;;3.38;1.05;;;14.40;99.90;;;;;;4821800;29;20058;-83
2020/12/09 11:52:37;;;;;;;4.57;1.45;;;14.40;99.90;;;;;;4826182;29;20552;-82
2020/12/09 11:55:03;;;;;;;3.08;1.15;;;14.40;99.90;;;;;;4834345;29;20497;-82
2020/12/09 11:57:30;;;;;;;6.85;1.45;;;14.40;99.90;;;;;;4820440;29;20071;-80
2020/12/09 11:59:56;;;;;;;10.15;2.67;;;14.50;99.90;;;;;;4821460;29;20026;-83
2020/12/09 12:02:23;;;;;;;5.50;1.23;;;14.50;99.90;;;;;;4820337;29;20042;-81
2020/12/09 12:04:52;;;;;;;5.10;1.50;;;14.40;99.90;;;;;;4821019;29;20665;-80
2020/12/09 12:07:18;;;;;;;3.80;1.10;;;14.50;99.90;;;;;;4816380;29;20042;-83
2020/12/09 12:09:45;;;;;;;7.65;1.70;;;14.50;99.90;;;;;;4821291;29;20079;-77
2020/12/09 12:12:11;;;;;;;4.63;1.75;;;14.40;99.90;;;;;;4820999;29;20030;-80
2020/12/09 12:14:37;;;;;;;4.93;1.30;;;14.40;99.90;;;;;;4806246;29;20446;-82
2020/12/09 12:17:07;;;;;;;3.35;1.60;;;14.30;99.90;;;;;;4788115;29;20034;-78
2020/12/09 12:19:35;;;;;;;8.52;1.98;;;14.40;99.90;;;;;;4811881;29;20030;-79
2020/12/09 12:22:05;;;;;;;5.65;2.05;;;14.40;99.90;;;;;;4819885;29;20031;-79
2020/12/09 12:24:32;;;;;;;5.45;2.42;;;14.40;99.90;;;;;;4820828;29;20050;-78
2020/12/09 12:26:58;;;;;;;6.80;1.95;;;14.50;99.90;;;;;;4821222;29;20067;-81
2020/12/09 12:29:24;;;;;;;6.85;2.00;;;14.40;99.90;;;;;;4821323;29;20031;-82
2020/12/09 12:31:50;;;;;;;12.82;2.45;;;14.40;99.90;;;;;;4818206;29;20056;-80
2020/12/09 12:34:16;;;;;;;7.30;1.67;;;14.30;99.90;;;;;;4826746;29;20065;-82
2020/12/09 12:36:42;;;;;;;7.15;2.20;;;14.40;99.90;;;;;;4820680;29;20087;-82
2020/12/09 12:39:09;;;;;;;11.10;1.80;;;14.40;99.90;;;;;;4832986;29;20042;-82
2020/12/09 12:41:35;;;;;;;7.30;1.95;;;14.50;99.90;;;;;;4814043;29;20554;-77
2020/12/09 12:44:02;;;;;;;8.63;1.48;;;14.40;99.90;;;;;;4820583;29;20030;-79
2020/12/09 12:46:28;;;;;;;7.22;1.70;;;14.50;99.90;;;;;;4822050;29;20037;-82